sensor_id;sensor_type;location;lat;lon;timestamp;pressure;altitude;pressure_sealevel;temperature;humidity
7990;BME280;4040;42.848;23.034;2022-12-07T00:00:13;94943.63;;;5.96;100.00
7990;BME280;4040;42.848;23.034;2022-12-07T00:06:04;94948.19;;;5.92;100.00
7990;BME280;4040;42.848;23.034;2022-12-07T00:11:53;94945.91;;;5.94;100.00
7990;BME280;4040;42.848;23.034;2022-12-07T00:17:42;94938.25;;;5.89;100.00
7990;BME280;4040;42.848;23.034;2022-12-07T00:27:53;94940.50;;;5.87;100.00
7990;BME280;4040;42.848;23.034;2022-12-07T00:33:43;94942.97;;;6.06;100.00
7990;BME280;4040;42.848;23.034;2022-12-07T00:39:32;94946.31;;;5.96;100.00
7990;BME280;4040;42.848;23.034;2022-12-07T00:45:23;94947.84;;;5.97;100.00
7990;BME280;4040;42.848;23.034;2022-12-07T00:51:12;94940.56;;;5.94;100.00
7990;BME280;4040;42.848;23.034;2022-12-07T00:57:01;94938.91;;;5.79;100.00
7990;BME280;4040;42.848;23.034;2022-12-07T01:02:52;94939.09;;;5.64;100.00
7990;BME280;4040;42.848;23.034;2022-12-07T01:08:41;94928.31;;;5.90;100.00
7990;BME280;4040;42.848;23.034;2022-12-07T01:14:29;94924.41;;;5.84;100.00
7990;BME280;4040;42.848;23.034;2022-12-07T01:20:19;94921.78;;;5.87;100.00
7990;BME280;4040;42.848;23.034;2022-12-07T01:30:30;94914.63;;;5.98;100.00
7990;BME280;4040;42.848;23.034;2022-12-07T01:36:23;94905.94;;;5.68;100.00
7990;BME280;4040;42.848;23.034;2022-12-07T01:42:12;94882.72;;;5.36;100.00
7990;BME280;4040;42.848;23.034;2022-12-07T01:48:01;94905.47;;;5.63;100.00
7990;BME280;4040;42.848;23.034;2022-12-07T01:53:51;94903.66;;;5.70;100.00
7990;BME280;4040;42.848;23.034;2022-12-07T01:59:41;94899.91;;;5.78;100.00
7990;BME280;4040;42.848;23.034;2022-12-07T02:05:31;94882.97;;;5.60;100.00
7990;BME280;4040;42.848;23.034;2022-12-07T02:11:22;94877.66;;;5.67;100.00
7990;BME280;4040;42.848;23.034;2022-12-07T02:17:15;94882.34;;;5.74;100.00
7990;BME280;4040;42.848;23.034;2022-12-07T02:23:40;94874.69;;;5.72;100.00
7990;BME280;4040;42.848;23.034;2022-12-07T02:29:33;94877.78;;;5.78;100.00
7990;BME280;4040;42.848;23.034;2022-12-07T02:35:26;94870.13;;;5.76;100.00
7990;BME280;4040;42.848;23.034;2022-12-07T02:41:21;94860.84;;;5.63;100.00
7990;BME280;4040;42.848;23.034;2022-12-07T02:47:15;94870.00;;;5.62;100.00
7990;BME280;4040;42.848;23.034;2022-12-07T02:53:05;94861.63;;;5.67;100.00
7990;BME280;4040;42.848;23.034;2022-12-07T02:59:04;94863.06;;;5.54;100.00
7990;BME280;4040;42.848;23.034;2022-12-07T03:05:05;94862.97;;;5.47;100.00
7990;BME280;4040;42.848;23.034;2022-12-07T03:10:59;94845.22;;;5.65;100.00
7990;BME280;4040;42.848;23.034;2022-12-07T03:16:52;94852.19;;;5.37;100.00
7990;BME280;4040;42.848;23.034;2022-12-07T03:22:45;94860.88;;;5.27;100.00
7990;BME280;4040;42.848;23.034;2022-12-07T03:33:00;94866.38;;;5.44;100.00
7990;BME280;4040;42.848;23.034;2022-12-07T03:38:55;94869.13;;;5.51;100.00
7990;BME280;4040;42.848;23.034;2022-12-07T03:44:45;94852.75;;;5.56;100.00
7990;BME280;4040;42.848;23.034;2022-12-07T03:50:40;94829.25;;;5.32;100.00
7990;BME280;4040;42.848;23.034;2022-12-07T03:56:34;94850.91;;;5.60;100.00
7990;BME280;4040;42.848;23.034;2022-12-07T04:02:25;94817.84;;;5.35;100.00
7990;BME280;4040;42.848;23.034;2022-12-07T04:08:14;94852.44;;;5.61;100.00
7990;BME280;4040;42.848;23.034;2022-12-07T04:14:04;94849.41;;;5.66;100.00
7990;BME280;4040;42.848;23.034;2022-12-07T04:20:09;94856.28;;;5.64;100.00
7990;BME280;4040;42.848;23.034;2022-12-07T04:25:58;94863.44;;;5.56;100.00
7990;BME280;4040;42.848;23.034;2022-12-07T04:36:10;94850.91;;;5.60;100.00
7990;BME280;4040;42.848;23.034;2022-12-07T04:42:00;94852.31;;;5.51;100.00
7990;BME280;4040;42.848;23.034;2022-12-07T04:47:49;94853.91;;;5.55;100.00
7990;BME280;4040;42.848;23.034;2022-12-07T04:53:39;94856.97;;;5.57;100.00
7990;BME280;4040;42.848;23.034;2022-12-07T04:59:28;94858.56;;;5.65;100.00
7990;BME280;4040;42.848;23.034;2022-12-07T05:05:16;94856.25;;;5.60;100.00
7990;BME280;4040;42.848;23.034;2022-12-07T05:11:07;94858.97;;;5.67;100.00
7990;BME280;4040;42.848;23.034;2022-12-07T05:16:56;94856.25;;;5.60;100.00
7990;BME280;4040;42.848;23.034;2022-12-07T05:22:44;94850.84;;;5.53;100.00
7990;BME280;4040;42.848;23.034;2022-12-07T05:28:35;94857.31;;;5.52;100.00
7990;BME280;4040;42.848;23.034;2022-12-07T05:38:45;94859.91;;;5.45;100.00
7990;BME280;4040;42.848;23.034;2022-12-07T05:44:35;94856.09;;;5.43;100.00
7990;BME280;4040;42.848;23.034;2022-12-07T05:50:24;94857.19;;;5.38;100.00
7990;BME280;4040;42.848;23.034;2022-12-07T05:56:13;94852.16;;;5.33;100.00
7990;BME280;4040;42.848;23.034;2022-12-07T06:02:04;94845.75;;;5.41;100.00
7990;BME280;4040;42.848;23.034;2022-12-07T06:07:53;94850.75;;;5.46;100.00
7990;BME280;4040;42.848;23.034;2022-12-07T06:13:42;94855.50;;;5.63;100.00
7990;BME280;4040;42.848;23.034;2022-12-07T06:19:32;94854.03;;;5.69;100.00
7990;BME280;4040;42.848;23.034;2022-12-07T06:25:21;94863.34;;;5.82;100.00
7990;BME280;4040;42.848;23.034;2022-12-07T06:31:10;94867.66;;;5.57;100.00
7990;BME280;4040;42.848;23.034;2022-12-07T06:41:22;94869.25;;;5.65;100.00
7990;BME280;4040;42.848;23.034;2022-12-07T06:47:11;94865.81;;;6.08;100.00
7990;BME280;4040;42.848;23.034;2022-12-07T06:53:00;94866.09;;;6.43;100.00
7990;BME280;4040;42.848;23.034;2022-12-07T06:58:50;94865.50;;;6.74;100.00
7990;BME280;4040;42.848;23.034;2022-12-07T07:04:38;94864.13;;;7.12;100.00
7990;BME280;4040;42.848;23.034;2022-12-07T07:10:27;94861.94;;;7.52;100.00
7990;BME280;4040;42.848;23.034;2022-12-07T07:16:16;94852.78;;;7.95;100.00
7990;BME280;4040;42.848;23.034;2022-12-07T07:22:05;94812.94;;;8.25;100.00
7990;BME280;4040;42.848;23.034;2022-12-07T07:27:54;94846.09;;;9.01;100.00
7990;BME280;4040;42.848;23.034;2022-12-07T07:33:45;94850.34;;;9.74;100.00
7990;BME280;4040;42.848;23.034;2022-12-07T07:43:55;94852.97;;;9.84;100.00
7990;BME280;4040;42.848;23.034;2022-12-07T07:49:45;94840.88;;;10.13;100.00
7990;BME280;4040;42.848;23.034;2022-12-07T07:55:34;94829.84;;;11.41;100.00
7990;BME280;4040;42.848;23.034;2022-12-07T08:01:23;94824.22;;;13.00;100.00
7990;BME280;4040;42.848;23.034;2022-12-07T08:07:14;94844.47;;;12.46;100.00
7990;BME280;4040;42.848;23.034;2022-12-07T08:13:03;94836.31;;;13.86;96.50
7990;BME280;4040;42.848;23.034;2022-12-07T08:19:01;94829.50;;;12.64;100.00
7990;BME280;4040;42.848;23.034;2022-12-07T08:24:51;94841.66;;;12.53;100.00
7990;BME280;4040;42.848;23.034;2022-12-07T08:30:40;94846.41;;;10.39;100.00
7990;BME280;4040;42.848;23.034;2022-12-07T08:36:28;94835.41;;;9.66;100.00
7990;BME280;4040;42.848;23.034;2022-12-07T08:46:42;94840.53;;;8.43;100.00
7990;BME280;4040;42.848;23.034;2022-12-07T08:52:35;94841.72;;;8.21;100.00
7990;BME280;4040;42.848;23.034;2022-12-07T08:58:25;94835.94;;;7.91;100.00
7990;BME280;4040;42.848;23.034;2022-12-07T09:04:16;94830.19;;;7.92;100.00
7990;BME280;4040;42.848;23.034;2022-12-07T09:10:05;94818.69;;;8.13;100.00
7990;BME280;4040;42.848;23.034;2022-12-07T09:15:54;94816.00;;;7.88;100.00
7990;BME280;4040;42.848;23.034;2022-12-07T09:21:44;94812.97;;;7.72;100.00
7990;BME280;4040;42.848;23.034;2022-12-07T09:27:33;94804.13;;;8.14;100.00
7990;BME280;4040;42.848;23.034;2022-12-07T09:33:22;94796.84;;;8.11;100.00
7990;BME280;4040;42.848;23.034;2022-12-07T09:39:12;94796.47;;;8.23;100.00
7990;BME280;4040;42.848;23.034;2022-12-07T09:49:24;94781.91;;;7.96;100.00
7990;BME280;4040;42.848;23.034;2022-12-07T09:55:19;94783.44;;;7.76;100.00
7990;BME280;4040;42.848;23.034;2022-12-07T10:01:13;94775.06;;;7.63;100.00
7990;BME280;4040;42.848;23.034;2022-12-07T10:07:02;94768.50;;;7.99;100.00
7990;BME280;4040;42.848;23.034;2022-12-07T10:13:00;94742.94;;;8.95;100.00
7990;BME280;4040;42.848;23.034;2022-12-07T10:18:49;94739.56;;;12.45;100.00
7990;BME280;4040;42.848;23.034;2022-12-07T10:24:38;94727.19;;;16.06;94.97
7990;BME280;4040;42.848;23.034;2022-12-07T10:30:31;94728.72;;;15.20;79.38
7990;BME280;4040;42.848;23.034;2022-12-07T10:36:23;94713.88;;;14.55;90.17
7990;BME280;4040;42.848;23.034;2022-12-07T10:42:17;94704.84;;;13.69;91.66
7990;BME280;4040;42.848;23.034;2022-12-07T10:52:48;94678.84;;;10.88;100.00
7990;BME280;4040;42.848;23.034;2022-12-07T10:58:52;94701.50;;;10.64;100.00
7990;BME280;4040;42.848;23.034;2022-12-07T11:04:56;94697.81;;;10.81;100.00
7990;BME280;4040;42.848;23.034;2022-12-07T11:10:53;94689.81;;;11.04;100.00
7990;BME280;4040;42.848;23.034;2022-12-07T11:16:52;94685.44;;;12.09;100.00
7990;BME280;4040;42.848;23.034;2022-12-07T11:22:49;94663.38;;;13.08;100.00
7990;BME280;4040;42.848;23.034;2022-12-07T11:28:58;94663.44;;;12.30;100.00
7990;BME280;4040;42.848;23.034;2022-12-07T11:35:02;94648.69;;;12.15;100.00
7990;BME280;4040;42.848;23.034;2022-12-07T11:40:58;94637.69;;;13.80;100.00
7990;BME280;4040;42.848;23.034;2022-12-07T11:47:06;94643.75;;;12.30;100.00
7990;BME280;4040;42.848;23.034;2022-12-07T11:52:59;94632.88;;;11.25;100.00
7990;BME280;4040;42.848;23.034;2022-12-07T11:58:55;94638.31;;;11.22;100.00
7990;BME280;4040;42.848;23.034;2022-12-07T12:04:52;94616.28;;;10.77;100.00
7990;BME280;4040;42.848;23.034;2022-12-07T12:10:55;94619.16;;;11.16;100.00
7990;BME280;4040;42.848;23.034;2022-12-07T12:17:06;94608.84;;;11.11;100.00
7990;BME280;4040;42.848;23.034;2022-12-07T12:23:09;94598.75;;;10.92;100.00
7990;BME280;4040;42.848;23.034;2022-12-07T12:29:02;94585.88;;;11.26;100.00
7990;BME280;4040;42.848;23.034;2022-12-07T12:35:20;94590.81;;;11.54;100.00
7990;BME280;4040;42.848;23.034;2022-12-07T12:47:59;94587.41;;;10.78;100.00
7990;BME280;4040;42.848;23.034;2022-12-07T12:53:48;94591.41;;;10.40;100.00
7990;BME280;4040;42.848;23.034;2022-12-07T12:59:39;94589.25;;;9.94;100.00
7990;BME280;4040;42.848;23.034;2022-12-07T13:05:30;94587.91;;;9.76;100.00
7990;BME280;4040;42.848;23.034;2022-12-07T13:11:25;94575.84;;;9.58;100.00
7990;BME280;4040;42.848;23.034;2022-12-07T13:23:54;94539.84;;;9.82;100.00
7990;BME280;4040;42.848;23.034;2022-12-07T13:29:43;94578.53;;;9.91;100.00
7990;BME280;4040;42.848;23.034;2022-12-07T13:35:34;94573.47;;;9.63;100.00
7990;BME280;4040;42.848;23.034;2022-12-07T13:41:26;94573.72;;;9.76;100.00
7990;BME280;4040;42.848;23.034;2022-12-07T13:47:19;94580.81;;;9.93;100.00
7990;BME280;4040;42.848;23.034;2022-12-07T13:53:12;94578.09;;;9.96;100.00
7990;BME280;4040;42.848;23.034;2022-12-07T13:59:05;94567.72;;;9.94;100.00
7990;BME280;4040;42.848;23.034;2022-12-07T14:05:07;94564.88;;;9.75;100.00
7990;BME280;4040;42.848;23.034;2022-12-07T14:10:56;94566.09;;;9.71;100.00
7990;BME280;4040;42.848;23.034;2022-12-07T14:16:57;94570.47;;;9.58;100.00
7990;BME280;4040;42.848;23.034;2022-12-07T14:22:54;94577.56;;;9.38;100.00
7990;BME280;4040;42.848;23.034;2022-12-07T14:28:43;94579.28;;;9.18;100.00
7990;BME280;4040;42.848;23.034;2022-12-07T14:34:33;94577.25;;;8.85;100.00
7990;BME280;4040;42.848;23.034;2022-12-07T14:40:24;94588.88;;;8.64;100.00
7990;BME280;4040;42.848;23.034;2022-12-07T14:46:14;94587.47;;;8.46;100.00
7990;BME280;4040;42.848;23.034;2022-12-07T14:52:05;94581.41;;;8.35;100.00
7990;BME280;4040;42.848;23.034;2022-12-07T14:57:57;94581.47;;;8.17;100.00
7990;BME280;4040;42.848;23.034;2022-12-07T15:11:29;94591.72;;;7.12;100.00
7990;BME280;4040;42.848;23.034;2022-12-07T15:17:17;94595.59;;;7.04;100.00
7990;BME280;4040;42.848;23.034;2022-12-07T15:23:07;94599.41;;;6.75;100.00
7990;BME280;4040;42.848;23.034;2022-12-07T15:28:57;94619.59;;;6.48;100.00
7990;BME280;4040;42.848;23.034;2022-12-07T15:34:46;94611.56;;;6.41;100.00
7990;BME280;4040;42.848;23.034;2022-12-07T15:40:34;94621.81;;;6.15;100.00
7990;BME280;4040;42.848;23.034;2022-12-07T15:46:29;94622.97;;;6.10;100.00
7990;BME280;4040;42.848;23.034;2022-12-07T15:52:19;94628.22;;;5.96;100.00
7990;BME280;4040;42.848;23.034;2022-12-07T15:58:08;94625.13;;;5.80;100.00
7990;BME280;4040;42.848;23.034;2022-12-07T16:03:58;94637.97;;;5.64;100.00
7990;BME280;4040;42.848;23.034;2022-12-07T16:06:25;94637.94;;;5.57;100.00
7990;BME280;4040;42.848;23.034;2022-12-07T16:12:14;94650.34;;;5.29;100.00
7990;BME280;4040;42.848;23.034;2022-12-07T16:18:03;94644.88;;;5.11;100.00
7990;BME280;4040;42.848;23.034;2022-12-07T16:23:54;94638.44;;;5.16;100.00
7990;BME280;4040;42.848;23.034;2022-12-07T16:29:45;94646.63;;;4.93;100.00
7990;BME280;4040;42.848;23.034;2022-12-07T16:35:33;94652.22;;;4.75;100.00
7990;BME280;4040;42.848;23.034;2022-12-07T16:41:23;94645.53;;;4.55;100.00
7990;BME280;4040;42.848;23.034;2022-12-07T16:47:12;94637.84;;;4.50;100.00
7990;BME280;4040;42.848;23.034;2022-12-07T16:53:00;94639.09;;;4.59;100.00
7990;BME280;4040;42.848;23.034;2022-12-07T16:58:50;94644.59;;;4.37;100.00
7990;BME280;4040;42.848;23.034;2022-12-07T17:04:39;94649.84;;;4.30;100.00
7990;BME280;4040;42.848;23.034;2022-12-07T17:10:29;94665.25;;;4.10;100.00
7990;BME280;4040;42.848;23.034;2022-12-07T17:16:19;94661.63;;;3.96;100.00
7990;BME280;4040;42.848;23.034;2022-12-07T17:22:08;94663.06;;;3.90;100.00
7990;BME280;4040;42.848;23.034;2022-12-07T17:27:58;94686.00;;;3.98;100.00
7990;BME280;4040;42.848;23.034;2022-12-07T17:33:49;94677.66;;;3.99;100.00
7990;BME280;4040;42.848;23.034;2022-12-07T17:39:38;94686.41;;;4.29;100.00
7990;BME280;4040;42.848;23.034;2022-12-07T17:45:26;94691.28;;;4.24;100.00
7990;BME280;4040;42.848;23.034;2022-12-07T17:51:16;94688.53;;;4.17;100.00
7990;BME280;4040;42.848;23.034;2022-12-07T17:57:22;94690.72;;;4.08;100.00
7990;BME280;4040;42.848;23.034;2022-12-07T18:03:11;94695.78;;;3.87;100.00
7990;BME280;4040;42.848;23.034;2022-12-07T18:13:23;94715.09;;;3.54;100.00
7990;BME280;4040;42.848;23.034;2022-12-07T18:19:24;94712.16;;;3.37;100.00
7990;BME280;4040;42.848;23.034;2022-12-07T18:25:13;94721.44;;;3.20;100.00
7990;BME280;4040;42.848;23.034;2022-12-07T18:31:03;94715.56;;;3.11;100.00
7990;BME280;4040;42.848;23.034;2022-12-07T18:36:52;94728.59;;;2.94;100.00
7990;BME280;4040;42.848;23.034;2022-12-07T18:42:41;94720.13;;;2.88;100.00
7990;BME280;4040;42.848;23.034;2022-12-07T18:48:31;94723.03;;;2.80;100.00
7990;BME280;4040;42.848;23.034;2022-12-07T18:54:20;94724.38;;;2.70;100.00
7990;BME280;4040;42.848;23.034;2022-12-07T19:00:09;94706.78;;;2.62;100.00
7990;BME280;4040;42.848;23.034;2022-12-07T19:06:04;94721.28;;;2.46;100.00
7990;BME280;4040;42.848;23.034;2022-12-07T19:16:15;94726.63;;;2.27;100.00
7990;BME280;4040;42.848;23.034;2022-12-07T19:22:06;94724.78;;;2.12;100.00
7990;BME280;4040;42.848;23.034;2022-12-07T19:27:55;94731.78;;;2.20;100.00
7990;BME280;4040;42.848;23.034;2022-12-07T19:33:44;94740.38;;;2.33;100.00
7990;BME280;4040;42.848;23.034;2022-12-07T19:39:35;94748.28;;;2.29;100.00
7990;BME280;4040;42.848;23.034;2022-12-07T19:45:23;94750.22;;;2.32;100.00
7990;BME280;4040;42.848;23.034;2022-12-07T19:51:15;94749.25;;;2.59;100.00
7990;BME280;4040;42.848;23.034;2022-12-07T19:57:06;94734.28;;;2.51;100.00
7990;BME280;4040;42.848;23.034;2022-12-07T20:03:01;94748.84;;;2.79;100.00
7990;BME280;4040;42.848;23.034;2022-12-07T20:08:49;94756.16;;;2.63;100.00
7990;BME280;4040;42.848;23.034;2022-12-07T20:19:01;94750.75;;;3.01;100.00
7990;BME280;4040;42.848;23.034;2022-12-07T20:24:51;94755.59;;;2.96;100.00
7990;BME280;4040;42.848;23.034;2022-12-07T20:30:45;94759.94;;;3.52;100.00
7990;BME280;4040;42.848;23.034;2022-12-07T20:36:36;94780.75;;;3.21;100.00
7990;BME280;4040;42.848;23.034;2022-12-07T20:42:25;94778.88;;;3.02;100.00
7990;BME280;4040;42.848;23.034;2022-12-07T20:48:26;94770.78;;;3.18;100.00
7990;BME280;4040;42.848;23.034;2022-12-07T20:54:16;94761.13;;;3.29;100.00
7990;BME280;4040;42.848;23.034;2022-12-07T21:00:06;94755.31;;;3.23;100.00
7990;BME280;4040;42.848;23.034;2022-12-07T21:05:55;94756.88;;;3.50;100.00
7990;BME280;4040;42.848;23.034;2022-12-07T21:11:45;94768.50;;;3.65;100.00
7990;BME280;4040;42.848;23.034;2022-12-07T21:21:55;94770.38;;;3.38;100.00
7990;BME280;4040;42.848;23.034;2022-12-07T21:27:46;94765.88;;;3.42;100.00
7990;BME280;4040;42.848;23.034;2022-12-07T21:33:34;94770.63;;;3.07;100.00
7990;BME280;4040;42.848;23.034;2022-12-07T21:39:23;94777.47;;;3.08;100.00
7990;BME280;4040;42.848;23.034;2022-12-07T21:45:13;94793.28;;;2.98;100.00
7990;BME280;4040;42.848;23.034;2022-12-07T21:51:07;94792.88;;;2.77;100.00
7990;BME280;4040;42.848;23.034;2022-12-07T21:56:55;94786.00;;;2.76;100.00
7990;BME280;4040;42.848;23.034;2022-12-07T22:02:46;94779.31;;;2.44;100.00
7990;BME280;4040;42.848;23.034;2022-12-07T22:08:55;94784.09;;;2.35;100.00
7990;BME280;4040;42.848;23.034;2022-12-07T22:14:44;94777.28;;;2.19;100.00
7990;BME280;4040;42.848;23.034;2022-12-07T22:24:53;94768.00;;;1.75;100.00
7990;BME280;4040;42.848;23.034;2022-12-07T22:30:41;94764.38;;;1.83;100.00
7990;BME280;4040;42.848;23.034;2022-12-07T22:36:30;94754.28;;;1.38;100.00
7990;BME280;4040;42.848;23.034;2022-12-07T22:42:20;94759.22;;;1.55;100.00
7990;BME280;4040;42.848;23.034;2022-12-07T22:48:09;94766.28;;;1.32;100.00
7990;BME280;4040;42.848;23.034;2022-12-07T22:53:58;94776.50;;;1.49;100.00
7990;BME280;4040;42.848;23.034;2022-12-07T22:59:49;94760.28;;;1.35;100.00
7990;BME280;4040;42.848;23.034;2022-12-07T23:05:40;94771.72;;;1.39;100.00
7990;BME280;4040;42.848;23.034;2022-12-07T23:11:31;94761.63;;;1.29;100.00
7990;BME280;4040;42.848;23.034;2022-12-07T23:17:38;94766.81;;;1.22;100.00
7990;BME280;4040;42.848;23.034;2022-12-07T23:27:49;94789.44;;;0.89;100.00
7990;BME280;4040;42.848;23.034;2022-12-07T23:33:40;94784.03;;;0.70;100.00
7990;BME280;4040;42.848;23.034;2022-12-07T23:39:28;94794.34;;;1.02;100.00
7990;BME280;4040;42.848;23.034;2022-12-07T23:45:17;94789.56;;;1.23;100.00
7990;BME280;4040;42.848;23.034;2022-12-07T23:51:09;94792.91;;;1.36;100.00
7990;BME280;4040;42.848;23.034;2022-12-07T23:56:58;94797.75;;;1.49;100.00
